sensor_id;sensor_type;location;lat;lon;timestamp;P1;durP1;ratioP1;P2;durP2;ratioP2
26858;SDS011;14429;48.346;16.338;2022-08-21T00:02:13;1.65;;;1.23;;
26858;SDS011;14429;48.346;16.338;2022-08-21T00:04:41;2.30;;;1.58;;
26858;SDS011;14429;48.346;16.338;2022-08-21T00:07:06;1.80;;;1.50;;
26858;SDS011;14429;48.346;16.338;2022-08-21T00:09:32;1.20;;;1.10;;
26858;SDS011;14429;48.346;16.338;2022-08-21T00:11:57;1.90;;;1.25;;
26858;SDS011;14429;48.346;16.338;2022-08-21T00:14:23;1.60;;;1.45;;
26858;SDS011;14429;48.346;16.338;2022-08-21T00:16:48;2.35;;;1.23;;
26858;SDS011;14429;48.346;16.338;2022-08-21T00:19:14;1.95;;;1.35;;
26858;SDS011;14429;48.346;16.338;2022-08-21T00:21:40;1.55;;;1.42;;
26858;SDS011;14429;48.346;16.338;2022-08-21T00:24:06;1.25;;;0.95;;
26858;SDS011;14429;48.346;16.338;2022-08-21T00:26:31;2.90;;;1.63;;
26858;SDS011;14429;48.346;16.338;2022-08-21T00:28:57;2.17;;;1.30;;
26858;SDS011;14429;48.346;16.338;2022-08-21T00:31:23;4.38;;;1.35;;
26858;SDS011;14429;48.346;16.338;2022-08-21T00:33:48;2.03;;;1.80;;
26858;SDS011;14429;48.346;16.338;2022-08-21T00:36:14;2.10;;;1.27;;
26858;SDS011;14429;48.346;16.338;2022-08-21T00:38:41;1.98;;;1.63;;
26858;SDS011;14429;48.346;16.338;2022-08-21T00:41:08;1.58;;;1.23;;
26858;SDS011;14429;48.346;16.338;2022-08-21T00:43:35;1.30;;;1.20;;
26858;SDS011;14429;48.346;16.338;2022-08-21T00:46:02;1.88;;;1.35;;
26858;SDS011;14429;48.346;16.338;2022-08-21T00:48:28;1.60;;;1.50;;
26858;SDS011;14429;48.346;16.338;2022-08-21T00:50:56;1.58;;;1.40;;
26858;SDS011;14429;48.346;16.338;2022-08-21T00:53:24;3.17;;;1.80;;
26858;SDS011;14429;48.346;16.338;2022-08-21T00:55:51;4.80;;;1.98;;
26858;SDS011;14429;48.346;16.338;2022-08-21T00:58:17;2.95;;;2.05;;
26858;SDS011;14429;48.346;16.338;2022-08-21T01:00:45;1.55;;;1.30;;
26858;SDS011;14429;48.346;16.338;2022-08-21T01:03:13;2.35;;;1.55;;
26858;SDS011;14429;48.346;16.338;2022-08-21T01:05:40;1.42;;;1.33;;
26858;SDS011;14429;48.346;16.338;2022-08-21T01:08:07;1.67;;;1.50;;
26858;SDS011;14429;48.346;16.338;2022-08-21T01:10:35;2.30;;;1.60;;
26858;SDS011;14429;48.346;16.338;2022-08-21T01:13:03;3.17;;;1.60;;
26858;SDS011;14429;48.346;16.338;2022-08-21T01:15:32;3.60;;;2.33;;
26858;SDS011;14429;48.346;16.338;2022-08-21T01:18:00;1.10;;;1.00;;
26858;SDS011;14429;48.346;16.338;2022-08-21T01:20:27;1.83;;;1.50;;
26858;SDS011;14429;48.346;16.338;2022-08-21T01:22:54;1.98;;;1.65;;
26858;SDS011;14429;48.346;16.338;2022-08-21T01:25:19;2.00;;;1.77;;
26858;SDS011;14429;48.346;16.338;2022-08-21T01:27:45;2.63;;;1.85;;
26858;SDS011;14429;48.346;16.338;2022-08-21T01:30:12;2.35;;;1.50;;
26858;SDS011;14429;48.346;16.338;2022-08-21T01:32:38;1.30;;;1.20;;
26858;SDS011;14429;48.346;16.338;2022-08-21T01:35:05;2.78;;;1.63;;
26858;SDS011;14429;48.346;16.338;2022-08-21T01:37:31;2.10;;;1.70;;
26858;SDS011;14429;48.346;16.338;2022-08-21T01:39:58;1.88;;;1.65;;
26858;SDS011;14429;48.346;16.338;2022-08-21T01:42:24;3.22;;;2.50;;
26858;SDS011;14429;48.346;16.338;2022-08-21T01:44:50;3.88;;;2.38;;
26858;SDS011;14429;48.346;16.338;2022-08-21T01:47:15;3.50;;;2.67;;
26858;SDS011;14429;48.346;16.338;2022-08-21T01:49:41;2.00;;;1.83;;
26858;SDS011;14429;48.346;16.338;2022-08-21T01:52:07;2.22;;;1.88;;
26858;SDS011;14429;48.346;16.338;2022-08-21T01:54:33;4.53;;;2.38;;
26858;SDS011;14429;48.346;16.338;2022-08-21T01:57:00;4.00;;;2.90;;
26858;SDS011;14429;48.346;16.338;2022-08-21T01:59:26;3.92;;;1.60;;
26858;SDS011;14429;48.346;16.338;2022-08-21T02:01:52;1.60;;;1.42;;
26858;SDS011;14429;48.346;16.338;2022-08-21T02:04:18;2.13;;;1.73;;
26858;SDS011;14429;48.346;16.338;2022-08-21T02:06:43;2.97;;;2.10;;
26858;SDS011;14429;48.346;16.338;2022-08-21T02:09:10;1.67;;;1.50;;
26858;SDS011;14429;48.346;16.338;2022-08-21T02:11:37;2.08;;;1.77;;
26858;SDS011;14429;48.346;16.338;2022-08-21T02:14:04;1.77;;;1.67;;
26858;SDS011;14429;48.346;16.338;2022-08-21T02:16:30;1.88;;;1.63;;
26858;SDS011;14429;48.346;16.338;2022-08-21T02:18:55;2.53;;;1.77;;
26858;SDS011;14429;48.346;16.338;2022-08-21T02:21:20;1.90;;;1.58;;
26858;SDS011;14429;48.346;16.338;2022-08-21T02:23:46;1.92;;;1.50;;
26858;SDS011;14429;48.346;16.338;2022-08-21T02:26:12;2.42;;;1.67;;
26858;SDS011;14429;48.346;16.338;2022-08-21T02:28:38;1.55;;;1.30;;
26858;SDS011;14429;48.346;16.338;2022-08-21T02:31:05;2.78;;;1.80;;
26858;SDS011;14429;48.346;16.338;2022-08-21T02:33:31;1.83;;;1.60;;
26858;SDS011;14429;48.346;16.338;2022-08-21T02:35:57;2.15;;;1.77;;
26858;SDS011;14429;48.346;16.338;2022-08-21T02:38:24;3.05;;;1.88;;
26858;SDS011;14429;48.346;16.338;2022-08-21T02:40:51;2.33;;;1.60;;
26858;SDS011;14429;48.346;16.338;2022-08-21T02:43:18;2.08;;;1.77;;
26858;SDS011;14429;48.346;16.338;2022-08-21T02:45:44;2.05;;;1.80;;
26858;SDS011;14429;48.346;16.338;2022-08-21T02:48:13;1.70;;;1.45;;
26858;SDS011;14429;48.346;16.338;2022-08-21T02:50:43;2.10;;;1.70;;
26858;SDS011;14429;48.346;16.338;2022-08-21T02:53:11;2.13;;;1.60;;
26858;SDS011;14429;48.346;16.338;2022-08-21T02:55:38;1.75;;;1.58;;
26858;SDS011;14429;48.346;16.338;2022-08-21T02:58:04;2.22;;;1.52;;
26858;SDS011;14429;48.346;16.338;2022-08-21T03:00:32;2.92;;;1.60;;
26858;SDS011;14429;48.346;16.338;2022-08-21T03:02:59;2.30;;;1.92;;
26858;SDS011;14429;48.346;16.338;2022-08-21T03:05:27;2.40;;;1.60;;
26858;SDS011;14429;48.346;16.338;2022-08-21T03:07:54;1.75;;;1.65;;
26858;SDS011;14429;48.346;16.338;2022-08-21T03:10:20;1.52;;;1.38;;
26858;SDS011;14429;48.346;16.338;2022-08-21T03:12:46;1.50;;;1.40;;
26858;SDS011;14429;48.346;16.338;2022-08-21T03:15:13;1.90;;;1.70;;
26858;SDS011;14429;48.346;16.338;2022-08-21T03:17:40;2.47;;;1.60;;
26858;SDS011;14429;48.346;16.338;2022-08-21T03:20:07;2.13;;;1.45;;
26858;SDS011;14429;48.346;16.338;2022-08-21T03:22:34;1.52;;;1.30;;
26858;SDS011;14429;48.346;16.338;2022-08-21T03:25:00;2.05;;;1.45;;
26858;SDS011;14429;48.346;16.338;2022-08-21T03:27:26;2.05;;;1.45;;
26858;SDS011;14429;48.346;16.338;2022-08-21T03:29:52;2.10;;;1.80;;
26858;SDS011;14429;48.346;16.338;2022-08-21T03:32:17;1.90;;;1.35;;
26858;SDS011;14429;48.346;16.338;2022-08-21T03:34:43;1.67;;;1.50;;
26858;SDS011;14429;48.346;16.338;2022-08-21T03:37:08;1.40;;;1.30;;
26858;SDS011;14429;48.346;16.338;2022-08-21T03:39:35;2.17;;;1.52;;
26858;SDS011;14429;48.346;16.338;2022-08-21T03:42:01;1.63;;;1.33;;
26858;SDS011;14429;48.346;16.338;2022-08-21T03:44:26;1.75;;;1.60;;
26858;SDS011;14429;48.346;16.338;2022-08-21T03:46:52;2.00;;;1.50;;
26858;SDS011;14429;48.346;16.338;2022-08-21T03:49:18;2.85;;;1.50;;
26858;SDS011;14429;48.346;16.338;2022-08-21T03:51:43;1.85;;;1.40;;
26858;SDS011;14429;48.346;16.338;2022-08-21T03:54:09;1.60;;;1.40;;
26858;SDS011;14429;48.346;16.338;2022-08-21T03:56:35;1.52;;;1.42;;
26858;SDS011;14429;48.346;16.338;2022-08-21T03:59:01;1.95;;;1.40;;
26858;SDS011;14429;48.346;16.338;2022-08-21T04:01:27;2.55;;;1.80;;
26858;SDS011;14429;48.346;16.338;2022-08-21T04:03:52;1.63;;;1.40;;
26858;SDS011;14429;48.346;16.338;2022-08-21T04:06:17;1.98;;;1.40;;
26858;SDS011;14429;48.346;16.338;2022-08-21T04:08:43;1.75;;;1.20;;
26858;SDS011;14429;48.346;16.338;2022-08-21T04:11:08;1.60;;;1.50;;
26858;SDS011;14429;48.346;16.338;2022-08-21T04:13:35;1.77;;;1.40;;
26858;SDS011;14429;48.346;16.338;2022-08-21T04:16:01;2.65;;;1.80;;
26858;SDS011;14429;48.346;16.338;2022-08-21T04:18:27;5.63;;;1.50;;
26858;SDS011;14429;48.346;16.338;2022-08-21T04:20:52;1.60;;;1.40;;
26858;SDS011;14429;48.346;16.338;2022-08-21T04:23:22;1.70;;;1.42;;
26858;SDS011;14429;48.346;16.338;2022-08-21T04:25:48;2.03;;;1.60;;
26858;SDS011;14429;48.346;16.338;2022-08-21T04:28:13;1.75;;;1.38;;
26858;SDS011;14429;48.346;16.338;2022-08-21T04:30:40;2.40;;;1.40;;
26858;SDS011;14429;48.346;16.338;2022-08-21T04:33:06;1.60;;;1.33;;
26858;SDS011;14429;48.346;16.338;2022-08-21T04:35:32;1.65;;;1.52;;
26858;SDS011;14429;48.346;16.338;2022-08-21T04:37:57;1.73;;;1.35;;
26858;SDS011;14429;48.346;16.338;2022-08-21T04:40:23;1.73;;;1.27;;
26858;SDS011;14429;48.346;16.338;2022-08-21T04:42:52;1.85;;;1.50;;
26858;SDS011;14429;48.346;16.338;2022-08-21T04:45:21;2.17;;;1.25;;
26858;SDS011;14429;48.346;16.338;2022-08-21T04:47:50;2.35;;;1.60;;
26858;SDS011;14429;48.346;16.338;2022-08-21T04:50:17;1.90;;;1.50;;
26858;SDS011;14429;48.346;16.338;2022-08-21T04:52:43;1.95;;;1.35;;
26858;SDS011;14429;48.346;16.338;2022-08-21T04:55:09;1.95;;;1.48;;
26858;SDS011;14429;48.346;16.338;2022-08-21T04:57:35;1.25;;;1.10;;
26858;SDS011;14429;48.346;16.338;2022-08-21T05:00:00;1.58;;;1.08;;
26858;SDS011;14429;48.346;16.338;2022-08-21T05:02:26;1.52;;;1.40;;
26858;SDS011;14429;48.346;16.338;2022-08-21T05:04:53;1.73;;;1.40;;
26858;SDS011;14429;48.346;16.338;2022-08-21T05:07:21;1.95;;;1.20;;
26858;SDS011;14429;48.346;16.338;2022-08-21T05:09:50;1.55;;;1.40;;
26858;SDS011;14429;48.346;16.338;2022-08-21T05:12:16;2.13;;;1.58;;
26858;SDS011;14429;48.346;16.338;2022-08-21T05:14:42;1.67;;;1.58;;
26858;SDS011;14429;48.346;16.338;2022-08-21T05:17:07;1.83;;;1.40;;
26858;SDS011;14429;48.346;16.338;2022-08-21T05:19:33;1.65;;;1.30;;
26858;SDS011;14429;48.346;16.338;2022-08-21T05:22:00;4.30;;;1.60;;
26858;SDS011;14429;48.346;16.338;2022-08-21T05:24:25;3.60;;;1.40;;
26858;SDS011;14429;48.346;16.338;2022-08-21T05:26:51;1.30;;;1.10;;
26858;SDS011;14429;48.346;16.338;2022-08-21T05:29:16;2.30;;;1.35;;
26858;SDS011;14429;48.346;16.338;2022-08-21T05:31:42;1.80;;;1.60;;
26858;SDS011;14429;48.346;16.338;2022-08-21T05:34:08;2.13;;;1.73;;
26858;SDS011;14429;48.346;16.338;2022-08-21T05:36:33;1.55;;;1.40;;
26858;SDS011;14429;48.346;16.338;2022-08-21T05:39:00;1.63;;;1.42;;
26858;SDS011;14429;48.346;16.338;2022-08-21T05:41:25;1.40;;;1.20;;
26858;SDS011;14429;48.346;16.338;2022-08-21T05:43:51;1.58;;;1.48;;
26858;SDS011;14429;48.346;16.338;2022-08-21T05:46:16;2.97;;;1.55;;
26858;SDS011;14429;48.346;16.338;2022-08-21T05:48:42;1.90;;;1.65;;
26858;SDS011;14429;48.346;16.338;2022-08-21T05:51:08;1.73;;;1.45;;
26858;SDS011;14429;48.346;16.338;2022-08-21T05:53:36;1.45;;;1.25;;
26858;SDS011;14429;48.346;16.338;2022-08-21T05:56:04;1.60;;;1.45;;
26858;SDS011;14429;48.346;16.338;2022-08-21T05:58:30;2.83;;;1.83;;
26858;SDS011;14429;48.346;16.338;2022-08-21T06:00:57;1.55;;;1.27;;
26858;SDS011;14429;48.346;16.338;2022-08-21T06:03:23;1.92;;;1.40;;
26858;SDS011;14429;48.346;16.338;2022-08-21T06:05:50;3.13;;;2.00;;
26858;SDS011;14429;48.346;16.338;2022-08-21T06:08:16;2.55;;;1.75;;
26858;SDS011;14429;48.346;16.338;2022-08-21T06:10:43;1.85;;;1.35;;
26858;SDS011;14429;48.346;16.338;2022-08-21T06:13:10;2.20;;;1.67;;
26858;SDS011;14429;48.346;16.338;2022-08-21T06:15:36;2.25;;;1.85;;
26858;SDS011;14429;48.346;16.338;2022-08-21T06:18:02;1.48;;;1.38;;
26858;SDS011;14429;48.346;16.338;2022-08-21T06:20:28;1.52;;;1.42;;
26858;SDS011;14429;48.346;16.338;2022-08-21T06:22:53;1.45;;;1.35;;
26858;SDS011;14429;48.346;16.338;2022-08-21T06:25:19;1.77;;;1.45;;
26858;SDS011;14429;48.346;16.338;2022-08-21T06:27:44;1.98;;;1.38;;
26858;SDS011;14429;48.346;16.338;2022-08-21T06:30:12;2.90;;;1.92;;
26858;SDS011;14429;48.346;16.338;2022-08-21T06:32:38;2.45;;;1.98;;
26858;SDS011;14429;48.346;16.338;2022-08-21T06:35:03;2.08;;;1.45;;
26858;SDS011;14429;48.346;16.338;2022-08-21T06:37:29;2.13;;;1.50;;
26858;SDS011;14429;48.346;16.338;2022-08-21T06:39:55;1.42;;;1.23;;
26858;SDS011;14429;48.346;16.338;2022-08-21T06:42:20;2.58;;;1.80;;
26858;SDS011;14429;48.346;16.338;2022-08-21T06:44:47;1.90;;;1.58;;
26858;SDS011;14429;48.346;16.338;2022-08-21T06:47:14;1.67;;;1.52;;
26858;SDS011;14429;48.346;16.338;2022-08-21T06:49:39;2.15;;;1.73;;
26858;SDS011;14429;48.346;16.338;2022-08-21T06:52:08;2.22;;;1.70;;
26858;SDS011;14429;48.346;16.338;2022-08-21T06:54:33;1.95;;;1.67;;
26858;SDS011;14429;48.346;16.338;2022-08-21T06:56:59;2.67;;;2.00;;
26858;SDS011;14429;48.346;16.338;2022-08-21T06:59:24;2.10;;;1.55;;
26858;SDS011;14429;48.346;16.338;2022-08-21T07:01:50;1.88;;;1.48;;
26858;SDS011;14429;48.346;16.338;2022-08-21T07:04:16;2.50;;;1.80;;
26858;SDS011;14429;48.346;16.338;2022-08-21T07:06:42;2.53;;;1.60;;
26858;SDS011;14429;48.346;16.338;2022-08-21T07:09:07;2.25;;;1.55;;
26858;SDS011;14429;48.346;16.338;2022-08-21T07:11:33;2.60;;;1.95;;
26858;SDS011;14429;48.346;16.338;2022-08-21T07:14:00;1.90;;;1.70;;
26858;SDS011;14429;48.346;16.338;2022-08-21T07:16:25;1.98;;;1.70;;
26858;SDS011;14429;48.346;16.338;2022-08-21T07:18:51;2.65;;;1.67;;
26858;SDS011;14429;48.346;16.338;2022-08-21T07:21:18;2.50;;;1.73;;
26858;SDS011;14429;48.346;16.338;2022-08-21T07:23:44;2.17;;;1.65;;
26858;SDS011;14429;48.346;16.338;2022-08-21T07:26:12;1.77;;;1.50;;
26858;SDS011;14429;48.346;16.338;2022-08-21T07:28:38;1.65;;;1.40;;
26858;SDS011;14429;48.346;16.338;2022-08-21T07:31:04;2.00;;;1.80;;
26858;SDS011;14429;48.346;16.338;2022-08-21T07:33:31;2.38;;;1.90;;
26858;SDS011;14429;48.346;16.338;2022-08-21T07:35:58;1.90;;;1.58;;
26858;SDS011;14429;48.346;16.338;2022-08-21T07:38:25;3.92;;;1.88;;
26858;SDS011;14429;48.346;16.338;2022-08-21T07:40:51;3.00;;;2.28;;
26858;SDS011;14429;48.346;16.338;2022-08-21T07:43:19;2.38;;;1.80;;
26858;SDS011;14429;48.346;16.338;2022-08-21T07:45:44;4.80;;;1.80;;
26858;SDS011;14429;48.346;16.338;2022-08-21T07:48:10;2.53;;;1.70;;
26858;SDS011;14429;48.346;16.338;2022-08-21T07:50:36;2.70;;;1.80;;
26858;SDS011;14429;48.346;16.338;2022-08-21T07:53:01;2.88;;;1.90;;
26858;SDS011;14429;48.346;16.338;2022-08-21T07:55:28;1.77;;;1.50;;
26858;SDS011;14429;48.346;16.338;2022-08-21T07:57:53;2.53;;;2.10;;
26858;SDS011;14429;48.346;16.338;2022-08-21T08:00:20;2.90;;;1.90;;
26858;SDS011;14429;48.346;16.338;2022-08-21T08:02:48;2.58;;;2.00;;
26858;SDS011;14429;48.346;16.338;2022-08-21T08:05:16;2.90;;;2.00;;
26858;SDS011;14429;48.346;16.338;2022-08-21T08:07:43;2.17;;;1.83;;
26858;SDS011;14429;48.346;16.338;2022-08-21T08:10:09;3.30;;;2.28;;
26858;SDS011;14429;48.346;16.338;2022-08-21T08:12:37;1.85;;;1.70;;
26858;SDS011;14429;48.346;16.338;2022-08-21T08:15:05;2.97;;;2.03;;
26858;SDS011;14429;48.346;16.338;2022-08-21T08:17:31;1.90;;;1.70;;
26858;SDS011;14429;48.346;16.338;2022-08-21T08:19:57;2.60;;;1.77;;
26858;SDS011;14429;48.346;16.338;2022-08-21T08:22:23;2.13;;;1.88;;
26858;SDS011;14429;48.346;16.338;2022-08-21T08:24:49;2.17;;;1.73;;
26858;SDS011;14429;48.346;16.338;2022-08-21T08:27:14;2.63;;;1.95;;
26858;SDS011;14429;48.346;16.338;2022-08-21T08:29:42;2.42;;;1.92;;
26858;SDS011;14429;48.346;16.338;2022-08-21T08:32:07;2.08;;;1.70;;
26858;SDS011;14429;48.346;16.338;2022-08-21T08:34:33;2.65;;;2.42;;
26858;SDS011;14429;48.346;16.338;2022-08-21T08:36:59;2.42;;;2.00;;
26858;SDS011;14429;48.346;16.338;2022-08-21T08:39:25;2.67;;;1.60;;
26858;SDS011;14429;48.346;16.338;2022-08-21T08:41:51;3.20;;;2.13;;
26858;SDS011;14429;48.346;16.338;2022-08-21T08:44:21;5.15;;;2.25;;
26858;SDS011;14429;48.346;16.338;2022-08-21T08:46:48;3.17;;;2.63;;
26858;SDS011;14429;48.346;16.338;2022-08-21T08:49:17;3.33;;;2.20;;
26858;SDS011;14429;48.346;16.338;2022-08-21T08:51:46;2.17;;;1.80;;
26858;SDS011;14429;48.346;16.338;2022-08-21T08:54:17;2.65;;;2.03;;
26858;SDS011;14429;48.346;16.338;2022-08-21T08:56:47;2.70;;;2.20;;
26858;SDS011;14429;48.346;16.338;2022-08-21T08:59:15;2.15;;;1.85;;
26858;SDS011;14429;48.346;16.338;2022-08-21T09:01:43;2.22;;;1.70;;
26858;SDS011;14429;48.346;16.338;2022-08-21T09:04:10;2.80;;;1.85;;
26858;SDS011;14429;48.346;16.338;2022-08-21T09:06:39;3.72;;;2.20;;
26858;SDS011;14429;48.346;16.338;2022-08-21T09:09:17;2.08;;;1.75;;
26858;SDS011;14429;48.346;16.338;2022-08-21T09:11:52;2.05;;;1.83;;
26858;SDS011;14429;48.346;16.338;2022-08-21T09:14:26;2.55;;;1.67;;
26858;SDS011;14429;48.346;16.338;2022-08-21T09:17:04;2.03;;;1.83;;
26858;SDS011;14429;48.346;16.338;2022-08-21T09:19:46;2.90;;;2.28;;
26858;SDS011;14429;48.346;16.338;2022-08-21T09:22:23;2.38;;;1.80;;
26858;SDS011;14429;48.346;16.338;2022-08-21T09:25:01;2.00;;;1.77;;
26858;SDS011;14429;48.346;16.338;2022-08-21T09:27:32;3.70;;;2.40;;
26858;SDS011;14429;48.346;16.338;2022-08-21T09:29:58;2.35;;;1.70;;
26858;SDS011;14429;48.346;16.338;2022-08-21T09:32:26;4.75;;;2.55;;
26858;SDS011;14429;48.346;16.338;2022-08-21T09:34:56;2.13;;;1.65;;
26858;SDS011;14429;48.346;16.338;2022-08-21T09:37:24;2.53;;;1.80;;
26858;SDS011;14429;48.346;16.338;2022-08-21T09:39:50;2.40;;;1.92;;
26858;SDS011;14429;48.346;16.338;2022-08-21T09:42:21;2.70;;;1.85;;
26858;SDS011;14429;48.346;16.338;2022-08-21T09:44:48;2.58;;;2.00;;
26858;SDS011;14429;48.346;16.338;2022-08-21T09:47:13;2.00;;;1.58;;
26858;SDS011;14429;48.346;16.338;2022-08-21T09:49:43;1.95;;;1.67;;
26858;SDS011;14429;48.346;16.338;2022-08-21T09:52:15;1.98;;;1.70;;
26858;SDS011;14429;48.346;16.338;2022-08-21T09:54:45;2.45;;;2.03;;
26858;SDS011;14429;48.346;16.338;2022-08-21T09:57:12;2.97;;;1.92;;
26858;SDS011;14429;48.346;16.338;2022-08-21T09:59:42;2.03;;;1.80;;
26858;SDS011;14429;48.346;16.338;2022-08-21T10:02:22;2.50;;;1.80;;
26858;SDS011;14429;48.346;16.338;2022-08-21T10:04:51;2.63;;;1.98;;
26858;SDS011;14429;48.346;16.338;2022-08-21T10:07:20;2.20;;;1.75;;
26858;SDS011;14429;48.346;16.338;2022-08-21T10:09:57;2.05;;;1.70;;
26858;SDS011;14429;48.346;16.338;2022-08-21T10:12:24;1.90;;;1.60;;
26858;SDS011;14429;48.346;16.338;2022-08-21T10:14:58;2.67;;;1.95;;
26858;SDS011;14429;48.346;16.338;2022-08-21T10:17:34;2.25;;;1.90;;
26858;SDS011;14429;48.346;16.338;2022-08-21T10:20:07;3.67;;;1.88;;
26858;SDS011;14429;48.346;16.338;2022-08-21T10:22:42;3.22;;;2.00;;
26858;SDS011;14429;48.346;16.338;2022-08-21T10:25:18;2.40;;;2.00;;
26858;SDS011;14429;48.346;16.338;2022-08-21T10:27:49;3.05;;;1.95;;
26858;SDS011;14429;48.346;16.338;2022-08-21T10:30:24;3.20;;;1.73;;
26858;SDS011;14429;48.346;16.338;2022-08-21T10:35:51;2.03;;;1.55;;
26858;SDS011;14429;48.346;16.338;2022-08-21T10:41:30;1.55;;;1.40;;
26858;SDS011;14429;48.346;16.338;2022-08-21T10:44:08;1.40;;;1.30;;
26858;SDS011;14429;48.346;16.338;2022-08-21T10:46:45;2.03;;;1.50;;
26858;SDS011;14429;48.346;16.338;2022-08-21T10:49:18;2.22;;;1.60;;
26858;SDS011;14429;48.346;16.338;2022-08-21T10:51:53;2.25;;;1.60;;
26858;SDS011;14429;48.346;16.338;2022-08-21T10:54:29;2.20;;;1.30;;
26858;SDS011;14429;48.346;16.338;2022-08-21T10:57:03;1.50;;;1.20;;
26858;SDS011;14429;48.346;16.338;2022-08-21T10:59:34;2.20;;;1.35;;
26858;SDS011;14429;48.346;16.338;2022-08-21T11:02:09;2.22;;;1.50;;
26858;SDS011;14429;48.346;16.338;2022-08-21T11:04:40;1.75;;;1.63;;
26858;SDS011;14429;48.346;16.338;2022-08-21T11:07:15;1.33;;;1.23;;
26858;SDS011;14429;48.346;16.338;2022-08-21T11:09:47;1.63;;;1.13;;
26858;SDS011;14429;48.346;16.338;2022-08-21T11:12:16;2.33;;;1.70;;
26858;SDS011;14429;48.346;16.338;2022-08-21T11:14:49;1.90;;;1.55;;
26858;SDS011;14429;48.346;16.338;2022-08-21T11:17:22;1.60;;;1.23;;
26858;SDS011;14429;48.346;16.338;2022-08-21T11:19:54;1.35;;;1.23;;
26858;SDS011;14429;48.346;16.338;2022-08-21T11:25:00;2.03;;;1.35;;
26858;SDS011;14429;48.346;16.338;2022-08-21T11:27:32;3.92;;;1.70;;
26858;SDS011;14429;48.346;16.338;2022-08-21T11:30:05;1.92;;;1.38;;
26858;SDS011;14429;48.346;16.338;2022-08-21T11:35:34;2.47;;;1.52;;
26858;SDS011;14429;48.346;16.338;2022-08-21T11:38:07;2.17;;;1.60;;
26858;SDS011;14429;48.346;16.338;2022-08-21T11:40:49;1.27;;;1.17;;
26858;SDS011;14429;48.346;16.338;2022-08-21T11:43:30;0.98;;;0.90;;
26858;SDS011;14429;48.346;16.338;2022-08-21T11:46:03;1.42;;;1.33;;
26858;SDS011;14429;48.346;16.338;2022-08-21T11:48:40;1.35;;;0.93;;
26858;SDS011;14429;48.346;16.338;2022-08-21T11:51:13;1.20;;;1.10;;
26858;SDS011;14429;48.346;16.338;2022-08-21T11:53:46;1.05;;;0.95;;
26858;SDS011;14429;48.346;16.338;2022-08-21T11:56:17;1.50;;;1.17;;
26858;SDS011;14429;48.346;16.338;2022-08-21T11:58:47;1.17;;;1.05;;
26858;SDS011;14429;48.346;16.338;2022-08-21T12:01:16;1.60;;;1.15;;
26858;SDS011;14429;48.346;16.338;2022-08-21T12:03:51;1.58;;;1.27;;
26858;SDS011;14429;48.346;16.338;2022-08-21T12:06:28;1.50;;;1.25;;
26858;SDS011;14429;48.346;16.338;2022-08-21T12:08:57;1.77;;;1.00;;
26858;SDS011;14429;48.346;16.338;2022-08-21T12:11:25;1.13;;;1.05;;
26858;SDS011;14429;48.346;16.338;2022-08-21T12:13:55;1.05;;;0.90;;
26858;SDS011;14429;48.346;16.338;2022-08-21T12:16:30;1.13;;;0.73;;
26858;SDS011;14429;48.346;16.338;2022-08-21T12:19:05;0.95;;;0.90;;
26858;SDS011;14429;48.346;16.338;2022-08-21T12:21:32;1.63;;;0.98;;
26858;SDS011;14429;48.346;16.338;2022-08-21T12:24:03;1.08;;;0.95;;
26858;SDS011;14429;48.346;16.338;2022-08-21T12:26:48;1.55;;;1.13;;
26858;SDS011;14429;48.346;16.338;2022-08-21T12:29:17;0.90;;;0.82;;
26858;SDS011;14429;48.346;16.338;2022-08-21T12:31:55;1.05;;;0.88;;
26858;SDS011;14429;48.346;16.338;2022-08-21T12:34:25;1.17;;;1.00;;
26858;SDS011;14429;48.346;16.338;2022-08-21T12:36:58;1.83;;;1.20;;
26858;SDS011;14429;48.346;16.338;2022-08-21T12:39:27;1.65;;;1.30;;
26858;SDS011;14429;48.346;16.338;2022-08-21T12:41:58;1.63;;;1.02;;
26858;SDS011;14429;48.346;16.338;2022-08-21T12:44:27;1.08;;;0.90;;
26858;SDS011;14429;48.346;16.338;2022-08-21T12:47:00;1.10;;;0.98;;
26858;SDS011;14429;48.346;16.338;2022-08-21T12:49:30;1.00;;;0.90;;
26858;SDS011;14429;48.346;16.338;2022-08-21T12:52:01;1.00;;;0.90;;
26858;SDS011;14429;48.346;16.338;2022-08-21T12:54:31;1.05;;;0.98;;
26858;SDS011;14429;48.346;16.338;2022-08-21T12:57:04;1.20;;;0.90;;
26858;SDS011;14429;48.346;16.338;2022-08-21T12:59:31;1.00;;;0.90;;
26858;SDS011;14429;48.346;16.338;2022-08-21T13:02:01;0.95;;;0.75;;
26858;SDS011;14429;48.346;16.338;2022-08-21T13:04:35;1.27;;;1.00;;
26858;SDS011;14429;48.346;16.338;2022-08-21T13:07:05;0.98;;;0.73;;
26858;SDS011;14429;48.346;16.338;2022-08-21T13:09:33;1.10;;;0.90;;
26858;SDS011;14429;48.346;16.338;2022-08-21T13:11:58;0.93;;;0.90;;
26858;SDS011;14429;48.346;16.338;2022-08-21T13:14:28;2.05;;;1.20;;
26858;SDS011;14429;48.346;16.338;2022-08-21T13:16:57;2.83;;;0.82;;
26858;SDS011;14429;48.346;16.338;2022-08-21T13:19:25;1.08;;;0.95;;
26858;SDS011;14429;48.346;16.338;2022-08-21T13:21:50;0.70;;;0.70;;
26858;SDS011;14429;48.346;16.338;2022-08-21T13:24:17;1.30;;;0.90;;
26858;SDS011;14429;48.346;16.338;2022-08-21T13:26:44;0.80;;;0.70;;
26858;SDS011;14429;48.346;16.338;2022-08-21T13:29:10;2.55;;;0.98;;
26858;SDS011;14429;48.346;16.338;2022-08-21T13:31:39;0.90;;;0.85;;
26858;SDS011;14429;48.346;16.338;2022-08-21T13:34:06;0.70;;;0.70;;
26858;SDS011;14429;48.346;16.338;2022-08-21T13:36:32;0.77;;;0.77;;
26858;SDS011;14429;48.346;16.338;2022-08-21T13:39:02;1.08;;;0.95;;
26858;SDS011;14429;48.346;16.338;2022-08-21T13:41:29;1.08;;;0.98;;
26858;SDS011;14429;48.346;16.338;2022-08-21T13:43:57;1.25;;;0.90;;
26858;SDS011;14429;48.346;16.338;2022-08-21T13:46:24;1.17;;;0.80;;
26858;SDS011;14429;48.346;16.338;2022-08-21T13:48:54;1.33;;;1.05;;
26858;SDS011;14429;48.346;16.338;2022-08-21T13:51:20;1.08;;;0.50;;
26858;SDS011;14429;48.346;16.338;2022-08-21T13:53:47;0.77;;;0.77;;
26858;SDS011;14429;48.346;16.338;2022-08-21T13:56:21;1.63;;;0.82;;
26858;SDS011;14429;48.346;16.338;2022-08-21T13:58:48;0.88;;;0.80;;
26858;SDS011;14429;48.346;16.338;2022-08-21T14:01:18;1.35;;;1.00;;
26858;SDS011;14429;48.346;16.338;2022-08-21T14:03:46;1.17;;;0.98;;
26858;SDS011;14429;48.346;16.338;2022-08-21T14:06:16;1.17;;;1.02;;
26858;SDS011;14429;48.346;16.338;2022-08-21T14:08:47;0.88;;;0.52;;
26858;SDS011;14429;48.346;16.338;2022-08-21T14:11:14;1.02;;;0.93;;
26858;SDS011;14429;48.346;16.338;2022-08-21T14:13:42;1.25;;;0.85;;
26858;SDS011;14429;48.346;16.338;2022-08-21T14:16:11;1.35;;;1.10;;
26858;SDS011;14429;48.346;16.338;2022-08-21T14:18:43;1.63;;;0.90;;
26858;SDS011;14429;48.346;16.338;2022-08-21T14:21:09;1.20;;;1.10;;
26858;SDS011;14429;48.346;16.338;2022-08-21T14:23:36;1.88;;;1.33;;
26858;SDS011;14429;48.346;16.338;2022-08-21T14:26:03;1.42;;;1.33;;
26858;SDS011;14429;48.346;16.338;2022-08-21T14:28:32;1.17;;;1.08;;
26858;SDS011;14429;48.346;16.338;2022-08-21T14:31:10;1.60;;;1.50;;
26858;SDS011;14429;48.346;16.338;2022-08-21T14:33:37;1.48;;;1.38;;
26858;SDS011;14429;48.346;16.338;2022-08-21T14:36:03;0.80;;;0.80;;
26858;SDS011;14429;48.346;16.338;2022-08-21T14:38:29;1.35;;;1.25;;
26858;SDS011;14429;48.346;16.338;2022-08-21T14:41:00;1.00;;;0.90;;
26858;SDS011;14429;48.346;16.338;2022-08-21T14:43:32;2.35;;;0.95;;
26858;SDS011;14429;48.346;16.338;2022-08-21T14:45:58;1.25;;;0.95;;
26858;SDS011;14429;48.346;16.338;2022-08-21T14:48:25;2.10;;;1.60;;
26858;SDS011;14429;48.346;16.338;2022-08-21T14:50:51;1.23;;;1.00;;